createdAt,value
2018-11-01T00:02:33.968Z,100148.19
2018-11-01T00:05:17.573Z,100157.22
2018-11-01T00:08:00.951Z,100154.64
2018-11-01T00:10:44.803Z,100159.73
2018-11-01T00:13:28.260Z,100157.99
2018-11-01T00:16:11.120Z,100152.79
2018-11-01T00:18:53.460Z,100151.83
2018-11-01T00:21:37.486Z,100145.70
2018-11-01T00:24:20.123Z,100147.22
2018-11-01T00:27:03.154Z,100144.16
2018-11-01T00:29:45.849Z,100139.39
2018-11-01T00:32:30.039Z,100149.80
2018-11-01T00:35:13.186Z,100160.08
2018-11-01T00:37:57.219Z,100154.55
2018-11-01T00:40:41.254Z,100152.00
2018-11-01T00:43:24.475Z,100145.52
2018-11-01T00:46:07.404Z,100145.08
2018-11-01T00:48:50.943Z,100154.12
2018-11-01T00:51:35.059Z,100149.78
2018-11-01T00:54:17.734Z,100144.25
2018-11-01T00:57:00.419Z,100143.72
2018-11-01T00:59:43.538Z,100146.76
2018-11-01T01:02:26.654Z,100134.64
2018-11-01T01:05:10.705Z,100141.58
2018-11-01T01:07:53.417Z,100142.88
2018-11-01T01:10:35.399Z,100141.59
2018-11-01T01:13:18.100Z,100138.56
2018-11-01T01:16:00.564Z,100148.08
2018-11-01T01:18:43.248Z,100147.71
2018-11-01T01:21:26.533Z,100146.90
2018-11-01T01:24:09.050Z,100150.83
2018-11-01T01:26:52.184Z,100145.69
2018-11-01T01:29:34.082Z,100134.51
2018-11-01T01:32:16.846Z,100139.78
2018-11-01T01:35:00.366Z,100138.05
2018-11-01T01:37:46.031Z,100124.30
2018-11-01T01:40:29.092Z,100126.84
2018-11-01T01:43:13.183Z,100116.95
2018-11-01T01:45:56.300Z,100118.21
2018-11-01T01:48:38.395Z,100111.22
2018-11-01T01:51:21.515Z,100108.61
2018-11-01T01:54:03.811Z,100110.80
2018-11-01T01:56:46.481Z,100116.86
2018-11-01T01:59:29.791Z,100100.88
2018-11-01T02:02:13.030Z,100098.63
2018-11-01T02:04:55.735Z,100105.16
2018-11-01T02:07:39.126Z,100106.52
2018-11-01T02:10:21.386Z,100102.19
2018-11-01T02:13:04.284Z,100106.06
2018-11-01T02:15:47.299Z,100097.82
2018-11-01T02:18:30.448Z,100091.78
2018-11-01T02:21:12.807Z,100096.86
2018-11-01T02:23:56.136Z,100100.84
2018-11-01T02:26:39.542Z,100099.02
2018-11-01T02:29:21.570Z,100091.78
2018-11-01T02:32:04.818Z,100090.94
2018-11-01T02:34:48.040Z,100098.25
2018-11-01T02:37:30.355Z,100094.45
2018-11-01T02:40:13.668Z,100095.72
2018-11-01T02:42:56.413Z,100091.00
2018-11-01T02:45:38.928Z,100088.44
2018-11-01T02:48:22.563Z,100086.30
2018-11-01T02:51:05.265Z,100088.52
2018-11-01T02:53:47.646Z,100092.88
2018-11-01T02:56:30.458Z,100076.98
2018-11-01T02:59:13.765Z,100070.94
2018-11-01T03:01:56.823Z,100072.69
2018-11-01T03:04:40.394Z,100067.96
2018-11-01T03:07:23.126Z,100068.48
2018-11-01T03:10:06.982Z,100056.00
2018-11-01T03:12:49.701Z,100047.01
2018-11-01T03:15:32.055Z,100042.30
2018-11-01T03:18:16.315Z,100047.55
2018-11-01T03:20:59.548Z,100050.23
2018-11-01T03:23:42.866Z,100048.56
2018-11-01T03:26:25.562Z,100049.92
2018-11-01T03:29:07.667Z,100050.79
2018-11-01T03:31:54.555Z,100048.23
2018-11-01T03:34:36.956Z,100055.56
2018-11-01T03:37:19.954Z,100057.34
2018-11-01T03:40:03.027Z,100065.12
2018-11-01T03:42:45.916Z,100051.77
2018-11-01T03:45:28.262Z,100057.36
2018-11-01T03:48:10.595Z,100050.48
2018-11-01T03:50:54.067Z,100051.35
2018-11-01T03:53:36.717Z,100054.00
2018-11-01T03:56:19.592Z,100040.61
2018-11-01T03:59:02.199Z,100031.13
2018-11-01T04:01:44.668Z,100041.45
2018-11-01T04:04:26.864Z,100037.93
2018-11-01T04:07:09.853Z,100034.13
2018-11-01T04:09:52.283Z,100032.84
2018-11-01T04:12:34.894Z,100020.41
2018-11-01T04:15:17.667Z,100017.41
2018-11-01T04:18:00.238Z,100018.71
2018-11-01T04:20:42.670Z,100019.61
2018-11-01T04:23:25.727Z,100015.75
2018-11-01T04:26:07.933Z,100017.50
2018-11-01T04:28:51.000Z,100016.27
2018-11-01T04:31:33.447Z,100006.75
2018-11-01T04:34:15.755Z,100003.37
2018-11-01T04:36:58.624Z,99992.20
2018-11-01T04:39:41.412Z,99987.48
2018-11-01T04:42:24.025Z,99985.78
2018-11-01T04:45:08.589Z,99985.77
2018-11-01T04:47:51.884Z,99966.45
2018-11-01T04:50:34.658Z,99977.66
2018-11-01T04:53:17.986Z,99973.31
2018-11-01T04:56:00.488Z,99980.66
2018-11-01T04:58:43.729Z,99974.22
2018-11-01T05:01:26.786Z,99982.41
2018-11-01T05:04:09.016Z,99980.72
2018-11-01T05:06:51.554Z,99982.87
2018-11-01T05:09:33.746Z,99981.97
2018-11-01T05:12:16.806Z,99984.16
2018-11-01T05:14:59.518Z,99983.30
2018-11-01T05:17:42.156Z,99982.02
2018-11-01T05:20:24.574Z,99979.88
2018-11-01T05:23:07.294Z,99974.30
2018-11-01T05:25:49.807Z,99969.14
2018-11-01T05:28:31.808Z,99959.31
2018-11-01T05:31:15.427Z,99955.03
2018-11-01T05:33:58.539Z,99947.27
2018-11-01T05:36:41.519Z,99951.17
2018-11-01T05:39:26.059Z,99945.59
2018-11-01T05:42:09.197Z,99947.31
2018-11-01T05:44:51.679Z,99952.45
2018-11-01T05:47:34.283Z,99950.73
2018-11-01T05:50:17.018Z,99946.88
2018-11-01T05:52:59.395Z,99944.30
2018-11-01T05:55:42.187Z,99939.20
2018-11-01T05:58:24.983Z,99936.16
2018-11-01T06:01:11.686Z,99931.91
2018-11-01T06:03:55.529Z,99935.30
2018-11-01T06:06:38.511Z,99943.48
2018-11-01T06:09:26.992Z,99955.50
2018-11-01T06:12:09.771Z,99958.06
2018-11-01T06:14:52.072Z,99960.21
2018-11-01T06:17:34.987Z,99983.80
2018-11-01T06:20:18.203Z,99997.97
2018-11-01T06:23:00.835Z,100006.11
2018-11-01T06:25:43.734Z,100008.20
2018-11-01T06:28:26.908Z,99998.78
2018-11-01T06:31:09.975Z,99992.80
2018-11-01T06:33:53.368Z,100000.86
2018-11-01T06:36:36.274Z,99996.59
2018-11-01T06:39:21.121Z,100004.33
2018-11-01T06:42:04.243Z,100020.09
2018-11-01T06:44:48.219Z,100018.81
2018-11-01T06:47:30.792Z,100015.75
2018-11-01T06:50:14.146Z,100015.78
2018-11-01T06:52:58.282Z,100013.14
2018-11-01T06:55:40.971Z,100012.80
2018-11-01T06:58:24.912Z,100020.81
2018-11-01T07:01:07.581Z,100017.39
2018-11-01T07:03:50.399Z,100010.17
2018-11-01T07:06:33.726Z,100004.27
2018-11-01T07:09:18.072Z,100000.84
2018-11-01T07:12:01.299Z,100001.24
2018-11-01T07:14:44.603Z,100001.68
2018-11-01T07:17:28.110Z,100000.88
2018-11-01T07:20:11.916Z,100000.00
2018-11-01T07:22:54.579Z,99992.67
2018-11-01T07:25:37.765Z,99989.34
2018-11-01T07:28:20.708Z,99980.73
2018-11-01T07:31:03.836Z,99967.00
2018-11-01T07:33:46.779Z,99961.52
2018-11-01T07:36:29.374Z,99952.52
2018-11-01T07:39:12.515Z,99949.06
2018-11-01T07:41:54.954Z,99948.16
2018-11-01T07:44:37.434Z,99948.13
2018-11-01T07:47:21.006Z,99955.42
2018-11-01T07:50:04.839Z,99959.74
2018-11-01T07:52:47.448Z,99968.70
2018-11-01T07:55:30.335Z,99973.86
2018-11-01T07:58:12.787Z,99961.23
2018-11-01T08:00:55.651Z,99963.87
2018-11-01T08:03:38.843Z,99970.00
2018-11-01T08:06:22.334Z,99968.72
2018-11-01T08:09:06.381Z,99978.54
2018-11-01T08:11:49.486Z,99982.81
2018-11-01T08:14:33.940Z,99995.20
2018-11-01T08:17:17.216Z,99992.16
2018-11-01T08:20:00.088Z,99989.91
2018-11-01T08:22:43.450Z,99992.48
2018-11-01T08:25:26.336Z,99981.33
2018-11-01T08:28:08.789Z,99972.78
2018-11-01T08:30:51.671Z,99970.57
2018-11-01T08:33:36.640Z,99958.95
2018-11-01T08:36:20.296Z,99961.08
2018-11-01T08:39:03.994Z,99952.08
2018-11-01T08:41:47.555Z,99949.47
2018-11-01T08:44:31.156Z,99945.60
2018-11-01T08:47:16.687Z,99938.71
2018-11-01T08:49:59.523Z,99931.73
2018-11-01T08:52:43.361Z,99930.41
2018-11-01T08:55:26.338Z,99925.22
2018-11-01T08:58:10.189Z,99912.25
2018-11-01T09:00:52.921Z,99906.15
2018-11-01T09:03:35.719Z,99901.72
2018-11-01T09:06:20.491Z,99901.23
2018-11-01T09:09:03.990Z,99908.48
2018-11-01T09:11:47.303Z,99907.55
2018-11-01T09:14:31.989Z,99914.00
2018-11-01T09:17:15.955Z,99910.42
2018-11-01T09:19:59.410Z,99902.33
2018-11-01T09:22:42.763Z,99910.43
2018-11-01T09:25:26.075Z,99913.97
2018-11-01T09:28:10.263Z,99914.43
2018-11-01T09:30:52.733Z,99905.64
2018-11-01T09:33:35.900Z,99896.63
2018-11-01T09:36:19.080Z,99896.09
2018-11-01T09:39:02.003Z,99892.11
2018-11-01T09:41:45.084Z,99895.52
2018-11-01T09:44:27.644Z,99892.44
2018-11-01T09:47:11.507Z,99892.34
2018-11-01T09:49:54.467Z,99900.89
2018-11-01T09:52:36.576Z,99909.70
2018-11-01T09:55:19.966Z,99909.16
2018-11-01T09:58:03.510Z,99910.73
2018-11-01T10:00:47.163Z,99908.50
2018-11-01T10:03:29.927Z,99903.98
2018-11-01T10:06:12.500Z,99910.26
2018-11-01T10:08:55.339Z,99905.28
2018-11-01T10:11:38.240Z,99901.02
2018-11-01T10:14:21.656Z,99906.51
2018-11-01T10:17:05.367Z,99905.80
2018-11-01T10:19:48.119Z,99905.23
2018-11-01T10:22:31.324Z,99903.37
2018-11-01T10:25:15.461Z,99898.53
2018-11-01T10:27:58.432Z,99898.38
2018-11-01T10:30:43.051Z,99896.52
2018-11-01T10:33:26.154Z,99893.66
2018-11-01T10:36:09.646Z,99901.70
2018-11-01T10:38:53.002Z,99901.84
2018-11-01T10:41:35.776Z,99906.90
2018-11-01T10:44:19.049Z,99896.17
2018-11-01T10:47:03.339Z,99894.41
2018-11-01T10:49:46.245Z,99892.64
2018-11-01T10:52:30.011Z,99894.20
2018-11-01T10:55:14.164Z,99894.95
2018-11-01T10:57:56.558Z,99889.28
2018-11-01T11:00:46.017Z,99890.01
2018-11-01T11:03:28.739Z,99884.88
2018-11-01T11:06:12.080Z,99882.73
2018-11-01T11:08:55.804Z,99888.39
2018-11-01T11:11:38.152Z,99882.61
2018-11-01T11:14:22.777Z,99879.44
2018-11-01T11:17:06.108Z,99875.65
2018-11-01T11:19:49.455Z,99873.94
2018-11-01T11:22:32.466Z,99871.25
2018-11-01T11:25:15.135Z,99868.34
2018-11-01T11:27:59.062Z,99872.00
2018-11-01T11:30:41.373Z,99867.53
2018-11-01T11:33:24.611Z,99866.34
2018-11-01T11:36:07.831Z,99859.80
2018-11-01T11:38:50.902Z,99859.55
2018-11-01T11:41:33.266Z,99848.72
2018-11-01T11:44:15.823Z,99848.42
2018-11-01T11:46:58.981Z,99837.53
2018-11-01T11:49:42.207Z,99832.95
2018-11-01T11:52:25.043Z,99829.62
2018-11-01T11:55:09.118Z,99823.17
2018-11-01T11:57:53.231Z,99821.28
2018-11-01T12:00:35.807Z,99811.17
2018-11-01T12:03:18.712Z,99817.64
2018-11-01T12:06:05.946Z,99807.62
2018-11-01T12:08:48.982Z,99797.98
2018-11-01T12:11:32.656Z,99803.36
2018-11-01T12:14:15.501Z,99794.06
2018-11-01T12:16:58.243Z,99795.35
2018-11-01T12:19:41.521Z,99795.95
2018-11-01T12:22:25.327Z,99796.44
2018-11-01T12:25:09.739Z,99799.99
2018-11-01T12:27:53.077Z,99795.08
2018-11-01T12:30:36.075Z,99791.48
2018-11-01T12:33:19.003Z,99790.16
2018-11-01T12:36:01.510Z,99788.27
2018-11-01T12:38:43.784Z,99801.66
2018-11-01T12:41:26.359Z,99814.39
2018-11-01T12:44:10.712Z,99816.23
2018-11-01T12:46:54.251Z,99825.32
2018-11-01T12:49:39.312Z,99824.44
2018-11-01T12:52:21.945Z,99813.54
2018-11-01T12:55:04.561Z,99802.61
2018-11-01T13:01:16.549Z,99823.09
2018-11-01T13:03:59.352Z,99821.83
2018-11-01T13:06:42.260Z,99817.50
2018-11-01T13:09:26.873Z,99816.41
2018-11-01T13:12:10.683Z,99825.30
2018-11-01T13:14:54.435Z,99812.44
2018-11-01T13:17:47.731Z,99810.95
2018-11-01T13:20:35.892Z,99805.83
2018-11-01T13:23:51.178Z,99813.59
2018-11-01T13:26:35.327Z,99829.83
2018-11-01T13:29:22.523Z,99841.09
2018-11-01T13:32:07.971Z,99845.47
2018-11-01T13:34:53.311Z,99842.90
2018-11-01T13:37:37.291Z,99843.17
2018-11-01T13:40:20.495Z,99831.03
2018-11-01T13:43:07.205Z,99826.09
2018-11-01T13:45:52.874Z,99826.75
2018-11-01T13:51:29.936Z,99825.70
2018-11-01T13:54:13.409Z,99833.94
2018-11-01T13:56:56.451Z,99833.30
2018-11-01T13:59:39.935Z,99834.25
2018-11-01T14:02:23.252Z,99821.27
2018-11-01T14:05:10.980Z,99825.92
2018-11-01T14:07:54.412Z,99827.45
2018-11-01T14:10:38.354Z,99829.18
2018-11-01T14:13:23.781Z,99829.20
2018-11-01T14:16:08.371Z,99844.48
2018-11-01T14:18:53.168Z,99847.98
2018-11-01T14:21:36.306Z,99849.71
2018-11-01T14:24:18.653Z,99847.41
2018-11-01T14:27:01.694Z,99858.13
2018-11-01T14:29:46.239Z,99852.56
2018-11-01T14:32:28.923Z,99855.73
2018-11-01T14:35:12.388Z,99848.05
2018-11-01T14:37:56.056Z,99846.42
2018-11-01T14:40:38.748Z,99849.01
2018-11-01T14:43:21.325Z,99856.91
2018-11-01T14:46:04.917Z,99860.29
2018-11-01T14:48:47.644Z,99856.72
2018-11-01T14:51:31.558Z,99859.41
2018-11-01T14:54:26.824Z,99858.19
2018-11-01T14:57:11.418Z,99864.32
2018-11-01T14:59:54.435Z,99864.32
2018-11-01T15:02:38.140Z,99865.25
2018-11-01T15:05:22.651Z,99860.53
2018-11-01T15:08:05.478Z,99857.27
2018-11-01T15:10:48.592Z,99856.22
2018-11-01T15:13:32.126Z,99850.66
2018-11-01T15:16:16.180Z,99857.55
2018-11-01T15:19:00.468Z,99866.86
2018-11-01T15:21:52.263Z,99865.00
2018-11-01T15:24:36.894Z,99857.25
2018-11-01T15:27:25.257Z,99855.83
2018-11-01T15:30:11.841Z,99857.77
2018-11-01T15:32:54.971Z,99851.23
2018-11-01T15:35:39.006Z,99850.56
2018-11-01T15:38:22.383Z,99844.27
2018-11-01T15:41:12.915Z,99848.19
2018-11-01T15:43:56.566Z,99855.06
2018-11-01T15:46:41.500Z,99852.91
2018-11-01T15:49:25.957Z,99860.25
2018-11-01T15:52:13.144Z,99855.50
2018-11-01T15:55:04.323Z,99857.70
2018-11-01T15:57:47.647Z,99866.42
2018-11-01T16:00:32.931Z,99864.30
2018-11-01T16:03:15.190Z,99867.30
2018-11-01T16:05:58.908Z,99870.73
2018-11-01T16:08:42.020Z,99869.92
2018-11-01T16:11:24.946Z,99882.08
2018-11-01T16:14:09.016Z,99880.68
2018-11-01T16:16:51.683Z,99885.09
2018-11-01T16:19:35.231Z,99896.30
2018-11-01T16:22:18.219Z,99897.27
2018-11-01T16:25:01.315Z,99899.66
2018-11-01T16:27:46.579Z,99908.19
2018-11-01T16:30:30.706Z,99906.53
2018-11-01T16:33:14.968Z,99912.95
2018-11-01T16:36:02.255Z,99915.23
2018-11-01T16:38:46.857Z,99910.55
2018-11-01T16:41:29.220Z,99910.48
2018-11-01T16:44:12.094Z,99916.16
2018-11-01T16:46:54.578Z,99919.61
2018-11-01T16:49:39.776Z,99920.44
2018-11-01T16:52:22.988Z,99919.59
2018-11-01T16:55:06.342Z,99923.47
2018-11-01T16:57:49.975Z,99930.30
2018-11-01T17:00:35.181Z,99920.88
2018-11-01T17:03:18.998Z,99932.08
2018-11-01T17:06:02.988Z,99924.33
2018-11-01T17:08:46.111Z,99931.19
2018-11-01T17:11:29.046Z,99931.65
2018-11-01T17:14:12.316Z,99923.41
2018-11-01T17:16:55.170Z,99925.61
2018-11-01T17:19:39.267Z,99931.20
2018-11-01T17:22:21.565Z,99935.97
2018-11-01T17:25:04.016Z,99932.95
2018-11-01T17:27:48.029Z,99939.87
2018-11-01T17:30:32.801Z,99938.23
2018-11-01T17:33:15.228Z,99943.41
2018-11-01T17:35:58.722Z,99941.27
2018-11-01T17:38:43.046Z,99927.48
2018-11-01T17:41:26.794Z,99923.01
2018-11-01T17:44:10.156Z,99915.69
2018-11-01T17:46:53.311Z,99923.19
2018-11-01T17:49:36.274Z,99919.38
2018-11-01T17:52:19.620Z,99923.17
2018-11-01T17:55:02.660Z,99920.22
2018-11-01T17:57:45.503Z,99926.70
2018-11-01T18:00:29.897Z,99918.09
2018-11-01T18:03:12.856Z,99915.86
2018-11-01T18:05:55.763Z,99908.16
2018-11-01T18:08:38.141Z,99907.77
2018-11-01T18:11:21.026Z,99897.92
2018-11-01T18:14:03.651Z,99903.56
2018-11-01T18:16:46.304Z,99900.55
2018-11-01T18:19:29.138Z,99905.81
2018-11-01T18:22:11.918Z,99901.58
2018-11-01T18:24:54.736Z,99899.38
2018-11-01T18:27:39.179Z,99908.03
2018-11-01T18:30:22.721Z,99916.63
2018-11-01T18:33:08.981Z,99923.41
2018-11-01T18:35:52.008Z,99925.11
2018-11-01T18:38:35.264Z,99931.56
2018-11-01T18:41:21.766Z,99932.00
2018-11-01T18:44:09.742Z,99942.33
2018-11-01T18:46:53.884Z,99944.88
2018-11-01T18:49:39.064Z,99950.91
2018-11-01T18:52:25.131Z,99955.19
2018-11-01T18:55:10.577Z,99949.58
2018-11-01T18:57:54.233Z,99952.11
2018-11-01T19:00:37.895Z,99952.97
2018-11-01T19:03:26.582Z,99956.41
2018-11-01T19:06:09.956Z,99965.39
2018-11-01T19:08:57.595Z,99963.23
2018-11-01T19:11:41.120Z,99968.41
2018-11-01T19:14:25.567Z,99967.05
2018-11-01T19:17:11.769Z,99960.97
2018-11-01T19:19:55.632Z,99971.30
2018-11-01T19:22:41.607Z,99973.42
2018-11-01T19:25:27.620Z,99973.02
2018-11-01T19:28:13.897Z,99970.92
2018-11-01T19:31:00.231Z,99984.20
2018-11-01T19:33:44.097Z,99977.28
2018-11-01T19:36:29.073Z,99972.47
2018-11-01T19:39:17.146Z,99975.48
2018-11-01T19:42:00.600Z,99983.70
2018-11-01T19:44:43.367Z,99983.70
2018-11-01T19:47:25.986Z,99989.25
2018-11-01T19:50:13.479Z,99996.98
2018-11-01T19:52:56.835Z,100001.23
2018-11-01T19:55:39.777Z,100005.63
2018-11-01T19:58:23.879Z,100005.95
2018-11-01T20:01:06.704Z,100011.14
2018-11-01T20:03:50.542Z,100008.98
2018-11-01T20:06:34.858Z,99999.95
2018-11-01T20:09:17.507Z,100005.11
2018-11-01T20:12:02.169Z,99999.48
2018-11-01T20:14:45.139Z,100000.86
2018-11-01T20:17:28.122Z,99993.13
2018-11-01T20:20:14.978Z,100001.25
2018-11-01T20:22:57.144Z,99999.61
2018-11-01T20:25:41.293Z,99996.17
2018-11-01T20:28:25.337Z,100000.91
2018-11-01T20:31:09.028Z,99999.65
2018-11-01T20:33:51.587Z,99993.58
2018-11-01T20:36:36.043Z,99992.75
2018-11-01T20:39:19.983Z,99993.57
2018-11-01T20:42:02.183Z,100005.21
2018-11-01T20:44:48.308Z,100004.34
2018-11-01T20:47:30.658Z,99998.66
2018-11-01T20:50:14.068Z,99996.59
2018-11-01T20:52:57.010Z,99986.58
2018-11-01T20:55:40.684Z,99985.30
2018-11-01T20:58:23.034Z,99985.02
2018-11-01T21:01:05.927Z,99989.30
2018-11-01T21:03:48.833Z,99997.51
2018-11-01T21:06:34.018Z,100006.95
2018-11-01T21:09:17.014Z,100010.82
2018-11-01T21:12:01.369Z,100015.95
2018-11-01T21:14:44.240Z,100015.06
2018-11-01T21:17:27.346Z,100011.90
2018-11-01T21:20:09.892Z,100013.19
2018-11-01T21:22:53.952Z,100014.93
2018-11-01T21:25:37.826Z,100016.63
2018-11-01T21:28:21.423Z,100014.51
2018-11-01T21:31:04.237Z,100015.70
2018-11-01T21:33:47.813Z,100013.09
2018-11-01T21:36:30.900Z,100017.83
2018-11-01T21:39:15.265Z,100015.21
2018-11-01T21:41:58.681Z,100019.08
2018-11-01T21:44:42.976Z,100021.64
2018-11-01T21:47:26.379Z,100013.94
2018-11-01T21:50:10.663Z,100020.92
2018-11-01T21:52:53.404Z,100018.77
2018-11-01T21:55:36.814Z,100016.63
2018-11-01T21:58:19.625Z,100009.77
2018-11-01T22:01:03.863Z,100006.36
2018-11-01T22:03:46.323Z,100009.30
2018-11-01T22:06:29.111Z,100002.88
2018-11-01T22:09:11.609Z,100010.23
2018-11-01T22:11:55.583Z,100005.48
2018-11-01T22:14:39.471Z,100009.91
2018-11-01T22:17:24.464Z,100005.94
2018-11-01T22:20:08.367Z,100011.50
2018-11-01T22:22:51.871Z,100013.18
2018-11-01T22:25:35.572Z,100006.29
2018-11-01T22:28:19.780Z,100009.28
2018-11-01T22:31:02.241Z,100007.18
2018-11-01T22:33:44.823Z,100010.05
2018-11-01T22:36:28.179Z,100008.72
2018-11-01T22:39:12.728Z,100017.27
2018-11-01T22:41:55.695Z,100017.63
2018-11-01T22:44:40.141Z,100018.00
2018-11-01T22:47:23.330Z,100017.13
2018-11-01T22:50:07.816Z,100018.38
2018-11-01T22:52:51.078Z,100017.08
2018-11-01T22:55:34.243Z,100019.22
2018-11-01T22:58:16.914Z,100022.14
2018-11-01T23:00:59.367Z,100025.92
2018-11-01T23:03:42.747Z,100033.75
2018-11-01T23:06:26.035Z,100035.88
2018-11-01T23:09:10.699Z,100034.58
2018-11-01T23:12:02.107Z,100035.03
2018-11-01T23:14:44.971Z,100044.02
2018-11-01T23:17:28.558Z,100045.38
2018-11-01T23:20:14.749Z,100047.54
2018-11-01T23:22:57.719Z,100051.34
2018-11-01T23:25:40.011Z,100041.52
2018-11-01T23:28:22.604Z,100041.05
2018-11-01T23:31:04.855Z,100039.48
2018-11-01T23:33:48.423Z,100045.43
2018-11-01T23:36:36.185Z,100048.80
2018-11-01T23:43:08.544Z,100041.73
2018-11-01T23:45:58.109Z,100045.28
2018-11-01T23:48:40.840Z,100043.48
2018-11-01T23:51:23.742Z,100049.45
2018-11-01T23:54:06.678Z,100049.88
2018-11-01T23:56:50.232Z,100059.74
2018-11-01T23:59:35.069Z,100062.39
